Time;durP1;ratioP1;P1;durP2;ratioP2;P2;SDS_P1;SDS_P2;PMS_P1;PMS_P2;Temp;Humidity;BMP_temperature;BMP_pressure;BME280_temperature;BME280_humidity;BME280_pressure;Samples;Min_cycle;Max_cycle;Signal;HPM_P1;HPM_P2
2023/11/09 00:08:34;;;;;;;;;;;3.10;99.90;;;;;;21284904;27;20412;-78
2023/11/09 00:18:34;;;;;;;;;;;3.20;99.90;;;;;;21277636;27;19915;-78
2023/11/09 00:28:35;;;;;;;;;;;3.20;99.90;;;;;;21252276;27;19955;-79
2023/11/09 00:38:35;;;;;;;;;;;3.20;99.90;;;;;;21193118;27;19939;-78
2023/11/09 00:48:36;;;;;;;;;;;3.10;99.90;;;;;;21194686;27;20387;-79
2023/11/09 00:58:37;;;;;;;;;;;2.90;99.90;;;;;;21182287;27;19915;-79
2023/11/09 01:08:38;;;;;;;;;;;2.90;99.90;;;;;;21168393;27;20448;-78
2023/11/09 01:18:39;;;;;;;;;;;2.80;99.90;;;;;;21172681;27;20399;-79
2023/11/09 01:28:39;;;;;;;;;;;2.70;99.90;;;;;;21175634;27;20031;-79
2023/11/09 01:38:40;;;;;;;;;;;2.50;99.90;;;;;;21195155;27;19920;-79
2023/11/09 01:48:41;;;;;;;;;;;2.60;99.90;;;;;;21169542;27;19958;-78
2023/11/09 01:58:42;;;;;;;;;;;2.50;99.90;;;;;;21195046;28;20436;-79
2023/11/09 02:08:43;;;;;;;;;;;2.50;99.90;;;;;;21177749;28;19919;-78
2023/11/09 02:18:44;;;;;;;;;;;2.50;99.90;;;;;;21177741;28;19920;-79
2023/11/09 02:28:46;;;;;;;;;;;2.40;99.90;;;;;;21203019;27;19980;-79
2023/11/09 02:38:47;;;;;;;;;;;2.40;99.90;;;;;;21272649;27;19972;-79
2023/11/09 02:48:47;;;;;;;;;;;2.50;99.90;;;;;;21243030;27;19912;-78
2023/11/09 02:58:48;;;;;;;;;;;2.40;99.90;;;;;;21254302;27;20378;-79
2023/11/09 03:08:49;;;;;;;;;;;2.50;99.90;;;;;;21254408;27;20175;-79
2023/11/09 03:18:50;;;;;;;;;;;2.50;99.90;;;;;;21253461;27;20010;-79
2023/11/09 03:28:50;;;;;;;;;;;2.30;99.90;;;;;;21239012;27;19959;-79
2023/11/09 03:38:51;;;;;;;;;;;2.20;99.90;;;;;;21160678;28;19923;-79
2023/11/09 03:48:52;;;;;;;;;;;2.10;99.90;;;;;;21165585;28;19912;-78
2023/11/09 03:58:53;;;;;;;;;;;2.10;99.90;;;;;;21166430;27;20294;-79
2023/11/09 04:08:54;;;;;;;;;;;2.20;99.90;;;;;;21163641;27;19943;-78
2023/11/09 04:18:54;;;;;;;;;;;2.00;99.90;;;;;;21163001;27;20348;-78
2023/11/09 04:28:57;;;;;;;;;;;1.90;99.90;;;;;;21178014;27;19921;-79
2023/11/09 04:38:57;;;;;;;;;;;1.90;99.90;;;;;;21245026;27;19915;-79
2023/11/09 04:49:06;;;;;;;;;;;1.90;99.90;;;;;;21246305;27;20325;-78
2023/11/09 05:09:27;;;;;;;;;;;1.70;99.90;;;;;;21244779;27;19911;-78
2023/11/09 05:19:28;;;;;;;;;;;1.60;99.90;;;;;;21243598;27;19960;-78
2023/11/09 05:29:31;;;;;;;;;;;1.60;99.90;;;;;;21244061;27;20381;-79
2023/11/09 05:39:32;;;;;;;;;;;1.70;99.90;;;;;;21235652;27;19922;-79
2023/11/09 05:49:33;;;;;;;;;;;1.60;99.90;;;;;;21243396;27;20384;-78
2023/11/09 05:59:34;;;;;;;;;;;1.70;99.90;;;;;;21245318;27;19916;-79
2023/11/09 06:09:35;;;;;;;;;;;1.70;99.90;;;;;;21242515;28;19911;-79
2023/11/09 06:19:36;;;;;;;;;;;1.80;99.90;;;;;;21241045;27;19915;-79
2023/11/09 06:29:37;;;;;;;;;;;2.00;99.90;;;;;;21253951;27;19915;-78
2023/11/09 06:39:39;;;;;;;;;;;2.00;99.90;;;;;;21255074;27;19915;-78
2023/11/09 06:49:39;;;;;;;;;;;2.20;99.90;;;;;;21254899;27;20405;-79
2023/11/09 06:59:40;;;;;;;;;;;2.60;99.90;;;;;;21256152;27;19938;-78
2023/11/09 07:09:41;;;;;;;;;;;2.90;99.90;;;;;;21249352;27;19912;-78
2023/11/09 07:19:47;;;;;;;;;;;3.00;99.90;;;;;;21251807;27;19961;-79
2023/11/09 07:29:48;;;;;;;;;;;2.90;99.90;;;;;;21229067;27;19915;-79
2023/11/09 07:39:49;;;;;;;;;;;2.90;99.90;;;;;;21165624;27;20000;-78
2023/11/09 07:49:51;;;;;;;;;;;3.20;99.90;;;;;;21165697;27;20459;-78
2023/11/09 07:59:51;;;;;;;;;;;3.50;99.90;;;;;;21166349;27;20378;-79
2023/11/09 08:09:52;;;;;;;;;;;3.80;99.90;;;;;;21163843;28;19981;-78
2023/11/09 08:19:54;;;;;;;;;;;3.90;99.90;;;;;;21164299;28;19916;-77
2023/11/09 08:29:56;;;;;;;;;;;4.10;99.90;;;;;;21163730;28;19916;-76
2023/11/09 08:39:58;;;;;;;;;;;4.40;99.90;;;;;;21172865;28;20418;-77
2023/11/09 08:49:59;;;;;;;;;;;3.90;99.90;;;;;;21162877;28;19915;-77
2023/11/09 09:00:00;;;;;;;;;;;4.00;99.90;;;;;;21159817;27;19972;-76
2023/11/09 09:10:01;;;;;;;;;;;4.20;99.90;;;;;;21158801;28;19912;-77
2023/11/09 09:20:01;;;;;;;;;;;4.50;99.90;;;;;;21158308;28;19959;-75
2023/11/09 09:30:02;;;;;;;;;;;4.70;99.90;;;;;;21160839;28;19985;-77
2023/11/09 09:40:07;;;;;;;;;;;5.00;99.90;;;;;;21163174;28;19915;-78
2023/11/09 09:50:09;;;;;;;;;;;5.00;99.90;;;;;;21167012;28;19916;-78
2023/11/09 10:00:23;;;;;;;;;;;4.80;99.90;;;;;;21181094;27;19927;-78
2023/11/09 10:10:26;;;;;;;;;;;4.90;99.90;;;;;;21201213;27;20010;-78
2023/11/09 10:20:27;;;;;;;;;;;5.00;99.90;;;;;;21199346;28;19923;-79
2023/11/09 10:30:28;;;;;;;;;;;5.20;99.90;;;;;;21229434;27;19915;-77
2023/11/09 10:40:30;;;;;;;;;;;5.50;99.90;;;;;;21275753;27;19926;-77
2023/11/09 10:50:32;;;;;;;;;;;5.40;99.90;;;;;;21275578;27;19915;-78
2023/11/09 11:00:42;;;;;;;;;;;5.60;99.90;;;;;;21277564;27;19916;-77
2023/11/09 11:10:48;;;;;;;;;;;5.90;99.90;;;;;;21273295;27;20290;-78
2023/11/09 11:21:02;;;;;;;;;;;6.00;99.90;;;;;;21266757;27;19915;-78
2023/11/09 11:31:08;;;;;;;;;;;6.10;99.90;;;;;;21263967;27;19954;-77
2023/11/09 11:41:11;;;;;;;;;;;6.50;99.90;;;;;;21266602;27;20382;-78
2023/11/09 11:51:13;;;;;;;;;;;6.40;99.90;;;;;;21253587;27;19920;-77
2023/11/09 12:01:21;;;;;;;;;;;6.20;99.90;;;;;;21257625;27;19915;-78
2023/11/09 12:11:26;;;;;;;;;;;6.30;99.90;;;;;;21253742;27;20044;-78
2023/11/09 12:21:27;;;;;;;;;;;6.50;99.90;;;;;;21253170;27;20002;-78
2023/11/09 12:31:29;;;;;;;;;;;6.40;99.90;;;;;;21251598;27;19915;-78
2023/11/09 12:41:31;;;;;;;;;;;6.60;99.90;;;;;;21262208;27;19925;-80
2023/11/09 12:51:33;;;;;;;;;;;6.80;99.90;;;;;;21262770;27;19911;-78
2023/11/09 13:01:33;;;;;;;;;;;7.00;99.90;;;;;;21263111;27;19921;-79
2023/11/09 13:11:41;;;;;;;;;;;6.90;99.90;;;;;;21260348;27;19911;-78
2023/11/09 13:21:42;;;;;;;;;;;6.90;99.90;;;;;;21260973;27;19935;-78
2023/11/09 13:31:43;;;;;;;;;;;7.00;99.90;;;;;;21259298;27;19920;-78
2023/11/09 13:41:45;;;;;;;;;;;6.90;99.90;;;;;;21257578;27;20007;-79
2023/11/09 14:02:09;;;;;;;;;;;7.10;99.90;;;;;;21258297;27;20495;-78
2023/11/09 14:12:12;;;;;;;;;;;7.10;99.90;;;;;;21250387;27;20385;-78
2023/11/09 14:22:15;;;;;;;;;;;7.10;99.90;;;;;;21246836;28;19930;-78
2023/11/09 14:32:16;;;;;;;;;;;7.10;99.90;;;;;;21293012;27;19915;-78
2023/11/09 14:42:17;;;;;;;;;;;7.10;99.90;;;;;;21338046;27;20378;-77
2023/11/09 14:52:40;;;;;;;;;;;7.20;99.90;;;;;;21352533;27;19942;-78
2023/11/09 15:02:42;;;;;;;;;;;7.20;99.90;;;;;;21352083;27;19918;-78
2023/11/09 15:12:43;;;;;;;;;;;7.30;99.90;;;;;;21350007;27;19942;-76
2023/11/09 15:22:43;;;;;;;;;;;7.20;99.90;;;;;;21320351;27;20444;-76
2023/11/09 15:32:44;;;;;;;;;;;7.10;99.90;;;;;;21337973;27;19922;-76
2023/11/09 15:42:50;;;;;;;;;;;7.20;99.90;;;;;;21330728;27;19921;-77
2023/11/09 15:52:53;;;;;;;;;;;7.10;99.90;;;;;;21332520;27;19915;-76
2023/11/09 16:02:54;;;;;;;;;;;7.10;99.90;;;;;;21315930;27;19963;-77
2023/11/09 16:12:55;;;;;;;;;;;7.10;99.90;;;;;;21337215;27;19953;-77
2023/11/09 16:22:56;;;;;;;;;;;7.00;99.90;;;;;;21333702;27;19923;-77
2023/11/09 16:33:00;;;;;;;;;;;6.90;99.90;;;;;;21325984;27;19915;-77
2023/11/09 16:43:01;;;;;;;;;;;6.90;99.90;;;;;;21330979;27;19929;-76
2023/11/09 16:53:01;;;;;;;;;;;6.90;99.90;;;;;;21333417;27;19982;-76
2023/11/09 17:03:02;;;;;;;;;;;7.00;99.90;;;;;;21330024;27;19915;-77
2023/11/09 17:13:03;;;;;;;;;;;7.00;99.90;;;;;;21330101;27;19919;-76
2023/11/09 17:23:06;;;;;;;;;;;7.00;99.90;;;;;;21329214;27;19915;-76
2023/11/09 17:33:07;;;;;;;;;;;7.00;99.90;;;;;;21325598;27;19922;-76
2023/11/09 17:43:08;;;;;;;;;;;7.10;99.90;;;;;;21327416;27;20013;-76
2023/11/09 17:53:09;;;;;;;;;;;7.10;99.90;;;;;;21327096;27;19919;-77
2023/11/09 18:03:13;;;;;;;;;;;7.10;99.90;;;;;;21321040;27;19934;-76
2023/11/09 18:13:13;;;;;;;;;;;6.80;99.90;;;;;;21325434;27;20373;-76
2023/11/09 18:23:15;;;;;;;;;;;6.40;99.90;;;;;;21336799;27;19954;-76
2023/11/09 18:33:15;;;;;;;;;;;5.90;99.90;;;;;;21338880;27;19915;-76
2023/11/09 18:43:16;;;;;;;;;;;5.60;99.90;;;;;;21342025;27;19967;-76
2023/11/09 18:53:17;;;;;;;;;;;5.50;99.90;;;;;;21341522;27;20259;-76
2023/11/09 19:03:19;;;;;;;;;;;5.40;99.90;;;;;;21342441;27;19915;-76
2023/11/09 19:13:22;;;;;;;;;;;5.30;99.90;;;;;;21338755;27;19911;-75
2023/11/09 19:23:24;;;;;;;;;;;4.90;99.90;;;;;;21339140;27;19962;-76
2023/11/09 19:33:24;;;;;;;;;;;5.20;99.90;;;;;;21336892;27;19915;-75
2023/11/09 19:43:25;;;;;;;;;;;5.40;99.90;;;;;;21337602;27;19950;-76
2023/11/09 19:53:26;;;;;;;;;;;5.60;99.90;;;;;;21338577;27;19911;-76
2023/11/09 20:03:27;;;;;;;;;;;5.40;99.90;;;;;;21339730;27;19938;-77
2023/11/09 20:13:28;;;;;;;;;;;5.00;99.90;;;;;;21314518;27;19946;-76
2023/11/09 20:23:29;;;;;;;;;;;5.10;99.90;;;;;;21334087;27;20293;-76
2023/11/09 20:33:30;;;;;;;;;;;5.10;99.90;;;;;;21333162;27;19915;-76
2023/11/09 20:43:32;;;;;;;;;;;5.30;99.90;;;;;;21335314;27;19967;-77
2023/11/09 20:53:36;;;;;;;;;;;5.50;99.90;;;;;;21333405;27;19963;-76
2023/11/09 21:03:39;;;;;;;;;;;5.50;99.90;;;;;;21361918;27;19914;-76
2023/11/09 21:13:40;;;;;;;;;;;5.70;99.90;;;;;;21342324;27;19911;-76
2023/11/09 21:23:42;;;;;;;;;;;5.80;99.90;;;;;;21350070;27;19966;-75
2023/11/09 21:33:43;;;;;;;;;;;5.90;99.90;;;;;;21364435;27;19914;-77
2023/11/09 21:43:46;;;;;;;;;;;6.20;99.90;;;;;;21353917;27;19922;-75
2023/11/09 21:53:50;;;;;;;;;;;6.20;99.90;;;;;;21357767;27;20401;-77
2023/11/09 22:03:50;;;;;;;;;;;6.10;99.90;;;;;;21335535;27;20355;-76
2023/11/09 22:13:51;;;;;;;;;;;6.10;99.90;;;;;;21346761;27;19941;-76
2023/11/09 22:23:52;;;;;;;;;;;6.20;99.90;;;;;;21315535;27;20364;-75
2023/11/09 22:33:52;;;;;;;;;;;6.40;99.90;;;;;;21312365;27;20379;-75
2023/11/09 22:43:53;;;;;;;;;;;6.30;99.90;;;;;;21316167;27;19922;-77
2023/11/09 22:53:54;;;;;;;;;;;6.20;99.90;;;;;;21318659;27;19946;-76
2023/11/09 23:03:55;;;;;;;;;;;6.30;99.90;;;;;;21315845;27;19919;-76
2023/11/09 23:13:58;;;;;;;;;;;6.30;99.90;;;;;;21314907;27;19990;-75
2023/11/09 23:23:58;;;;;;;;;;;6.10;99.90;;;;;;21326650;27;19915;-75
2023/11/09 23:33:59;;;;;;;;;;;6.30;99.90;;;;;;21326921;27;19967;-76
2023/11/09 23:43:59;;;;;;;;;;;6.20;99.90;;;;;;21331337;27;19919;-77
2023/11/09 23:54:00;;;;;;;;;;;6.30;99.90;;;;;;21333612;27;19911;-76
